sensor_id;sensor_type;location;lat;lon;timestamp;P1;durP1;ratioP1;P2;durP2;ratioP2
13234;SDS011;6683;48.506;9.050;2023-03-14T00:01:45;0.80;;;0.50;;
13234;SDS011;6683;48.506;9.050;2023-03-14T00:04:48;0.40;;;0.40;;
13234;SDS011;6683;48.506;9.050;2023-03-14T00:07:52;0.97;;;0.50;;
13234;SDS011;6683;48.506;9.050;2023-03-14T00:10:54;0.67;;;0.50;;
13234;SDS011;6683;48.506;9.050;2023-03-14T00:13:57;0.40;;;0.40;;
13234;SDS011;6683;48.506;9.050;2023-03-14T00:17:01;0.30;;;0.30;;
13234;SDS011;6683;48.506;9.050;2023-03-14T00:20:03;0.40;;;0.40;;
13234;SDS011;6683;48.506;9.050;2023-03-14T00:23:12;0.73;;;0.50;;
13234;SDS011;6683;48.506;9.050;2023-03-14T00:26:15;0.40;;;0.40;;
13234;SDS011;6683;48.506;9.050;2023-03-14T00:29:20;0.60;;;0.60;;
13234;SDS011;6683;48.506;9.050;2023-03-14T00:32:22;2.50;;;0.70;;
13234;SDS011;6683;48.506;9.050;2023-03-14T00:35:25;0.50;;;0.30;;
13234;SDS011;6683;48.506;9.050;2023-03-14T00:38:29;0.33;;;0.30;;
13234;SDS011;6683;48.506;9.050;2023-03-14T00:41:32;0.80;;;0.50;;
13234;SDS011;6683;48.506;9.050;2023-03-14T00:44:35;0.50;;;0.33;;
13234;SDS011;6683;48.506;9.050;2023-03-14T00:47:37;0.33;;;0.33;;
13234;SDS011;6683;48.506;9.050;2023-03-14T00:50:40;0.30;;;0.30;;
13234;SDS011;6683;48.506;9.050;2023-03-14T00:53:44;0.67;;;0.30;;
13234;SDS011;6683;48.506;9.050;2023-03-14T00:56:46;0.50;;;0.37;;
13234;SDS011;6683;48.506;9.050;2023-03-14T00:59:48;0.40;;;0.40;;
13234;SDS011;6683;48.506;9.050;2023-03-14T01:02:53;0.40;;;0.37;;
13234;SDS011;6683;48.506;9.050;2023-03-14T01:06:04;0.40;;;0.30;;
13234;SDS011;6683;48.506;9.050;2023-03-14T01:09:11;1.07;;;0.60;;
13234;SDS011;6683;48.506;9.050;2023-03-14T01:12:13;0.47;;;0.40;;
13234;SDS011;6683;48.506;9.050;2023-03-14T01:15:16;0.30;;;0.20;;
13234;SDS011;6683;48.506;9.050;2023-03-14T01:18:19;0.40;;;0.30;;
13234;SDS011;6683;48.506;9.050;2023-03-14T01:21:22;1.07;;;0.40;;
13234;SDS011;6683;48.506;9.050;2023-03-14T01:24:28;0.30;;;0.30;;
13234;SDS011;6683;48.506;9.050;2023-03-14T01:27:30;0.50;;;0.50;;
13234;SDS011;6683;48.506;9.050;2023-03-14T01:30:32;0.47;;;0.30;;
13234;SDS011;6683;48.506;9.050;2023-03-14T01:33:35;0.63;;;0.40;;
13234;SDS011;6683;48.506;9.050;2023-03-14T01:36:38;0.60;;;0.37;;
13234;SDS011;6683;48.506;9.050;2023-03-14T01:39:42;0.30;;;0.30;;
13234;SDS011;6683;48.506;9.050;2023-03-14T01:42:45;0.47;;;0.47;;
13234;SDS011;6683;48.506;9.050;2023-03-14T01:49:25;0.80;;;0.40;;
13234;SDS011;6683;48.506;9.050;2023-03-14T01:52:31;0.97;;;0.40;;
13234;SDS011;6683;48.506;9.050;2023-03-14T01:55:39;0.30;;;0.30;;
13234;SDS011;6683;48.506;9.050;2023-03-14T01:58:41;0.30;;;0.30;;
13234;SDS011;6683;48.506;9.050;2023-03-14T02:01:46;0.70;;;0.30;;
13234;SDS011;6683;48.506;9.050;2023-03-14T02:04:51;0.30;;;0.30;;
13234;SDS011;6683;48.506;9.050;2023-03-14T02:07:56;0.70;;;0.30;;
13234;SDS011;6683;48.506;9.050;2023-03-14T02:11:03;1.03;;;0.33;;
13234;SDS011;6683;48.506;9.050;2023-03-14T02:14:07;1.23;;;0.40;;
13234;SDS011;6683;48.506;9.050;2023-03-14T02:17:24;0.30;;;0.30;;
13234;SDS011;6683;48.506;9.050;2023-03-14T02:20:28;0.40;;;0.40;;
13234;SDS011;6683;48.506;9.050;2023-03-14T02:23:36;0.40;;;0.40;;
13234;SDS011;6683;48.506;9.050;2023-03-14T02:27:04;0.37;;;0.30;;
13234;SDS011;6683;48.506;9.050;2023-03-14T02:30:18;0.40;;;0.40;;
13234;SDS011;6683;48.506;9.050;2023-03-14T02:33:22;0.40;;;0.40;;
13234;SDS011;6683;48.506;9.050;2023-03-14T02:36:25;0.40;;;0.40;;
13234;SDS011;6683;48.506;9.050;2023-03-14T02:39:30;1.03;;;0.40;;
13234;SDS011;6683;48.506;9.050;2023-03-14T02:42:39;1.03;;;0.40;;
13234;SDS011;6683;48.506;9.050;2023-03-14T02:45:42;0.40;;;0.40;;
13234;SDS011;6683;48.506;9.050;2023-03-14T02:48:47;0.30;;;0.30;;
13234;SDS011;6683;48.506;9.050;2023-03-14T02:51:54;0.53;;;0.40;;
13234;SDS011;6683;48.506;9.050;2023-03-14T02:54:56;0.73;;;0.50;;
13234;SDS011;6683;48.506;9.050;2023-03-14T02:58:00;0.30;;;0.30;;
13234;SDS011;6683;48.506;9.050;2023-03-14T03:01:02;1.00;;;0.50;;
13234;SDS011;6683;48.506;9.050;2023-03-14T03:04:05;0.50;;;0.40;;
13234;SDS011;6683;48.506;9.050;2023-03-14T03:07:08;0.40;;;0.40;;
13234;SDS011;6683;48.506;9.050;2023-03-14T03:10:10;0.60;;;0.33;;
13234;SDS011;6683;48.506;9.050;2023-03-14T03:13:15;0.37;;;0.37;;
13234;SDS011;6683;48.506;9.050;2023-03-14T03:16:18;0.80;;;0.40;;
13234;SDS011;6683;48.506;9.050;2023-03-14T03:19:20;0.40;;;0.40;;
13234;SDS011;6683;48.506;9.050;2023-03-14T03:22:23;0.37;;;0.37;;
13234;SDS011;6683;48.506;9.050;2023-03-14T03:25:25;0.50;;;0.30;;
13234;SDS011;6683;48.506;9.050;2023-03-14T03:28:29;0.47;;;0.40;;
13234;SDS011;6683;48.506;9.050;2023-03-14T03:31:32;0.50;;;0.40;;
13234;SDS011;6683;48.506;9.050;2023-03-14T03:34:34;0.40;;;0.40;;
13234;SDS011;6683;48.506;9.050;2023-03-14T03:37:37;0.30;;;0.30;;
13234;SDS011;6683;48.506;9.050;2023-03-14T03:40:39;0.80;;;0.50;;
13234;SDS011;6683;48.506;9.050;2023-03-14T03:43:44;0.50;;;0.50;;
13234;SDS011;6683;48.506;9.050;2023-03-14T03:46:46;0.60;;;0.50;;
13234;SDS011;6683;48.506;9.050;2023-03-14T03:49:49;0.87;;;0.60;;
13234;SDS011;6683;48.506;9.050;2023-03-14T03:52:51;0.47;;;0.40;;
13234;SDS011;6683;48.506;9.050;2023-03-14T03:55:54;0.43;;;0.43;;
13234;SDS011;6683;48.506;9.050;2023-03-14T03:58:58;0.50;;;0.40;;
13234;SDS011;6683;48.506;9.050;2023-03-14T04:02:00;2.03;;;0.60;;
13234;SDS011;6683;48.506;9.050;2023-03-14T04:05:02;0.60;;;0.60;;
13234;SDS011;6683;48.506;9.050;2023-03-14T04:08:05;1.10;;;0.73;;
13234;SDS011;6683;48.506;9.050;2023-03-14T04:11:08;1.70;;;0.57;;
13234;SDS011;6683;48.506;9.050;2023-03-14T04:14:12;0.87;;;0.63;;
13234;SDS011;6683;48.506;9.050;2023-03-14T04:17:14;0.80;;;0.70;;
13234;SDS011;6683;48.506;9.050;2023-03-14T04:20:17;1.93;;;0.60;;
13234;SDS011;6683;48.506;9.050;2023-03-14T04:23:20;1.00;;;0.90;;
13234;SDS011;6683;48.506;9.050;2023-03-14T04:26:24;1.67;;;0.80;;
13234;SDS011;6683;48.506;9.050;2023-03-14T04:29:27;1.13;;;0.60;;
13234;SDS011;6683;48.506;9.050;2023-03-14T04:32:29;0.87;;;0.83;;
13234;SDS011;6683;48.506;9.050;2023-03-14T04:35:31;2.83;;;0.97;;
13234;SDS011;6683;48.506;9.050;2023-03-14T04:38:34;1.50;;;0.73;;
13234;SDS011;6683;48.506;9.050;2023-03-14T04:41:36;1.00;;;0.80;;
13234;SDS011;6683;48.506;9.050;2023-03-14T04:44:40;1.43;;;0.60;;
13234;SDS011;6683;48.506;9.050;2023-03-14T04:47:43;1.73;;;0.80;;
13234;SDS011;6683;48.506;9.050;2023-03-14T04:50:46;1.80;;;0.70;;
13234;SDS011;6683;48.506;9.050;2023-03-14T04:53:49;2.60;;;0.90;;
13234;SDS011;6683;48.506;9.050;2023-03-14T04:56:51;1.10;;;0.53;;
13234;SDS011;6683;48.506;9.050;2023-03-14T04:59:55;0.90;;;0.60;;
13234;SDS011;6683;48.506;9.050;2023-03-14T05:02:57;2.10;;;0.80;;
13234;SDS011;6683;48.506;9.050;2023-03-14T05:05:59;0.80;;;0.80;;
13234;SDS011;6683;48.506;9.050;2023-03-14T05:09:01;0.60;;;0.60;;
13234;SDS011;6683;48.506;9.050;2023-03-14T05:12:05;0.97;;;0.80;;
13234;SDS011;6683;48.506;9.050;2023-03-14T05:15:10;0.70;;;0.70;;
13234;SDS011;6683;48.506;9.050;2023-03-14T05:18:12;1.03;;;0.80;;
13234;SDS011;6683;48.506;9.050;2023-03-14T05:21:14;1.17;;;0.83;;
13234;SDS011;6683;48.506;9.050;2023-03-14T05:24:17;3.20;;;0.80;;
13234;SDS011;6683;48.506;9.050;2023-03-14T05:27:19;2.50;;;1.10;;
13234;SDS011;6683;48.506;9.050;2023-03-14T05:30:23;1.07;;;0.90;;
13234;SDS011;6683;48.506;9.050;2023-03-14T05:33:25;0.77;;;0.77;;
13234;SDS011;6683;48.506;9.050;2023-03-14T05:36:28;1.03;;;0.90;;
13234;SDS011;6683;48.506;9.050;2023-03-14T05:39:30;0.97;;;0.67;;
13234;SDS011;6683;48.506;9.050;2023-03-14T05:42:33;0.93;;;0.80;;
13234;SDS011;6683;48.506;9.050;2023-03-14T05:45:37;0.97;;;0.80;;
13234;SDS011;6683;48.506;9.050;2023-03-14T05:48:39;1.80;;;0.80;;
13234;SDS011;6683;48.506;9.050;2023-03-14T05:51:41;0.70;;;0.70;;
13234;SDS011;6683;48.506;9.050;2023-03-14T05:54:44;2.00;;;0.93;;
13234;SDS011;6683;48.506;9.050;2023-03-14T05:57:46;1.00;;;0.77;;
13234;SDS011;6683;48.506;9.050;2023-03-14T06:00:50;0.80;;;0.73;;
13234;SDS011;6683;48.506;9.050;2023-03-14T06:03:53;1.43;;;0.70;;
13234;SDS011;6683;48.506;9.050;2023-03-14T06:06:56;1.90;;;0.90;;
13234;SDS011;6683;48.506;9.050;2023-03-14T06:09:58;1.90;;;0.80;;
13234;SDS011;6683;48.506;9.050;2023-03-14T06:13:00;0.90;;;0.80;;
13234;SDS011;6683;48.506;9.050;2023-03-14T06:16:06;1.37;;;0.80;;
13234;SDS011;6683;48.506;9.050;2023-03-14T06:19:09;1.10;;;0.80;;
13234;SDS011;6683;48.506;9.050;2023-03-14T06:22:12;1.50;;;0.90;;
13234;SDS011;6683;48.506;9.050;2023-03-14T06:25:15;1.57;;;0.70;;
13234;SDS011;6683;48.506;9.050;2023-03-14T06:28:18;0.70;;;0.70;;
13234;SDS011;6683;48.506;9.050;2023-03-14T06:31:22;1.23;;;0.80;;
13234;SDS011;6683;48.506;9.050;2023-03-14T06:34:25;2.20;;;0.80;;
13234;SDS011;6683;48.506;9.050;2023-03-14T06:37:27;0.77;;;0.70;;
13234;SDS011;6683;48.506;9.050;2023-03-14T06:40:30;1.43;;;1.03;;
13234;SDS011;6683;48.506;9.050;2023-03-14T06:43:32;1.00;;;0.93;;
13234;SDS011;6683;48.506;9.050;2023-03-14T06:46:36;1.53;;;0.80;;
13234;SDS011;6683;48.506;9.050;2023-03-14T06:49:38;0.50;;;0.50;;
13234;SDS011;6683;48.506;9.050;2023-03-14T06:52:41;4.23;;;0.90;;
13234;SDS011;6683;48.506;9.050;2023-03-14T06:55:47;2.40;;;0.50;;
13234;SDS011;6683;48.506;9.050;2023-03-14T06:58:50;0.60;;;0.60;;
13234;SDS011;6683;48.506;9.050;2023-03-14T07:01:54;2.93;;;1.07;;
13234;SDS011;6683;48.506;9.050;2023-03-14T07:04:56;3.90;;;1.50;;
13234;SDS011;6683;48.506;9.050;2023-03-14T07:08:00;0.80;;;0.80;;
13234;SDS011;6683;48.506;9.050;2023-03-14T07:11:02;2.27;;;1.00;;
13234;SDS011;6683;48.506;9.050;2023-03-14T07:14:05;0.90;;;0.80;;
13234;SDS011;6683;48.506;9.050;2023-03-14T07:17:09;1.80;;;0.80;;
13234;SDS011;6683;48.506;9.050;2023-03-14T07:20:12;2.67;;;0.60;;
13234;SDS011;6683;48.506;9.050;2023-03-14T07:23:14;1.30;;;0.77;;
13234;SDS011;6683;48.506;9.050;2023-03-14T07:26:16;3.60;;;0.63;;
13234;SDS011;6683;48.506;9.050;2023-03-14T07:29:18;1.10;;;0.90;;
13234;SDS011;6683;48.506;9.050;2023-03-14T07:32:22;0.60;;;0.60;;
13234;SDS011;6683;48.506;9.050;2023-03-14T07:35:25;3.90;;;0.83;;
13234;SDS011;6683;48.506;9.050;2023-03-14T07:38:28;8.50;;;2.20;;
13234;SDS011;6683;48.506;9.050;2023-03-14T07:41:31;1.47;;;0.80;;
13234;SDS011;6683;48.506;9.050;2023-03-14T07:44:35;1.90;;;0.80;;
13234;SDS011;6683;48.506;9.050;2023-03-14T07:47:38;3.07;;;1.00;;
13234;SDS011;6683;48.506;9.050;2023-03-14T07:50:41;3.77;;;1.00;;
13234;SDS011;6683;48.506;9.050;2023-03-14T07:53:44;1.73;;;0.60;;
13234;SDS011;6683;48.506;9.050;2023-03-14T07:56:46;0.60;;;0.60;;
13234;SDS011;6683;48.506;9.050;2023-03-14T07:59:48;0.50;;;0.50;;
13234;SDS011;6683;48.506;9.050;2023-03-14T08:02:52;6.87;;;0.90;;
13234;SDS011;6683;48.506;9.050;2023-03-14T08:05:55;1.40;;;0.70;;
13234;SDS011;6683;48.506;9.050;2023-03-14T08:08:57;2.07;;;0.50;;
13234;SDS011;6683;48.506;9.050;2023-03-14T08:12:00;1.20;;;0.60;;
13234;SDS011;6683;48.506;9.050;2023-03-14T08:15:02;9.87;;;1.63;;
13234;SDS011;6683;48.506;9.050;2023-03-14T08:18:07;0.80;;;0.50;;
13234;SDS011;6683;48.506;9.050;2023-03-14T08:21:10;0.63;;;0.53;;
13234;SDS011;6683;48.506;9.050;2023-03-14T08:24:14;1.70;;;0.40;;
13234;SDS011;6683;48.506;9.050;2023-03-14T08:27:17;0.60;;;0.50;;
13234;SDS011;6683;48.506;9.050;2023-03-14T08:30:20;3.93;;;0.60;;
13234;SDS011;6683;48.506;9.050;2023-03-14T08:33:25;2.67;;;0.50;;
13234;SDS011;6683;48.506;9.050;2023-03-14T08:36:28;1.10;;;0.43;;
13234;SDS011;6683;48.506;9.050;2023-03-14T08:39:31;2.90;;;0.60;;
13234;SDS011;6683;48.506;9.050;2023-03-14T08:42:33;1.63;;;0.50;;
13234;SDS011;6683;48.506;9.050;2023-03-14T08:45:35;1.83;;;0.80;;
13234;SDS011;6683;48.506;9.050;2023-03-14T08:48:39;1.30;;;0.70;;
13234;SDS011;6683;48.506;9.050;2023-03-14T08:51:42;0.97;;;0.43;;
13234;SDS011;6683;48.506;9.050;2023-03-14T08:54:44;0.90;;;0.50;;
13234;SDS011;6683;48.506;9.050;2023-03-14T08:57:47;0.80;;;0.40;;
13234;SDS011;6683;48.506;9.050;2023-03-14T09:00:50;1.87;;;0.40;;
13234;SDS011;6683;48.506;9.050;2023-03-14T09:03:54;2.73;;;0.60;;
13234;SDS011;6683;48.506;9.050;2023-03-14T09:06:56;0.70;;;0.40;;
13234;SDS011;6683;48.506;9.050;2023-03-14T09:09:59;2.00;;;0.40;;
13234;SDS011;6683;48.506;9.050;2023-03-14T09:13:01;0.60;;;0.40;;
13234;SDS011;6683;48.506;9.050;2023-03-14T09:16:04;2.03;;;0.40;;
13234;SDS011;6683;48.506;9.050;2023-03-14T09:19:09;0.90;;;0.30;;
13234;SDS011;6683;48.506;9.050;2023-03-14T09:22:12;0.83;;;0.50;;
13234;SDS011;6683;48.506;9.050;2023-03-14T09:25:14;1.83;;;0.30;;
13234;SDS011;6683;48.506;9.050;2023-03-14T09:28:17;0.43;;;0.40;;
13234;SDS011;6683;48.506;9.050;2023-03-14T09:31:19;1.77;;;0.40;;
13234;SDS011;6683;48.506;9.050;2023-03-14T09:34:23;0.47;;;0.30;;
13234;SDS011;6683;48.506;9.050;2023-03-14T09:37:25;1.23;;;0.40;;
13234;SDS011;6683;48.506;9.050;2023-03-14T09:40:30;0.57;;;0.40;;
13234;SDS011;6683;48.506;9.050;2023-03-14T09:43:35;0.20;;;0.20;;
13234;SDS011;6683;48.506;9.050;2023-03-14T09:46:38;0.90;;;0.40;;
13234;SDS011;6683;48.506;9.050;2023-03-14T09:49:43;1.00;;;0.40;;
13234;SDS011;6683;48.506;9.050;2023-03-14T09:52:46;0.53;;;0.40;;
13234;SDS011;6683;48.506;9.050;2023-03-14T09:55:52;0.70;;;0.60;;
13234;SDS011;6683;48.506;9.050;2023-03-14T09:58:59;0.63;;;0.60;;
13234;SDS011;6683;48.506;9.050;2023-03-14T10:02:11;0.40;;;0.40;;
13234;SDS011;6683;48.506;9.050;2023-03-14T10:05:21;0.87;;;0.40;;
13234;SDS011;6683;48.506;9.050;2023-03-14T10:08:30;1.23;;;0.50;;
13234;SDS011;6683;48.506;9.050;2023-03-14T10:11:34;2.30;;;0.40;;
13234;SDS011;6683;48.506;9.050;2023-03-14T10:14:37;4.53;;;0.80;;
13234;SDS011;6683;48.506;9.050;2023-03-14T10:17:47;0.30;;;0.30;;
13234;SDS011;6683;48.506;9.050;2023-03-14T10:21:02;1.50;;;0.43;;
13234;SDS011;6683;48.506;9.050;2023-03-14T10:24:16;9.17;;;0.77;;
13234;SDS011;6683;48.506;9.050;2023-03-14T10:27:27;2.80;;;0.40;;
13234;SDS011;6683;48.506;9.050;2023-03-14T10:30:38;0.97;;;0.30;;
13234;SDS011;6683;48.506;9.050;2023-03-14T10:33:58;3.57;;;0.53;;
13234;SDS011;6683;48.506;9.050;2023-03-14T10:37:05;0.30;;;0.30;;
13234;SDS011;6683;48.506;9.050;2023-03-14T10:40:12;1.23;;;0.30;;
13234;SDS011;6683;48.506;9.050;2023-03-14T10:43:16;0.57;;;0.20;;
13234;SDS011;6683;48.506;9.050;2023-03-14T10:46:21;1.20;;;0.33;;
13234;SDS011;6683;48.506;9.050;2023-03-14T10:49:28;0.40;;;0.30;;
13234;SDS011;6683;48.506;9.050;2023-03-14T10:52:34;0.63;;;0.40;;
13234;SDS011;6683;48.506;9.050;2023-03-14T10:55:40;1.53;;;0.40;;
13234;SDS011;6683;48.506;9.050;2023-03-14T10:58:45;0.47;;;0.30;;
13234;SDS011;6683;48.506;9.050;2023-03-14T11:01:51;0.50;;;0.30;;
13234;SDS011;6683;48.506;9.050;2023-03-14T11:05:02;1.33;;;0.40;;
13234;SDS011;6683;48.506;9.050;2023-03-14T11:08:20;0.30;;;0.20;;
13234;SDS011;6683;48.506;9.050;2023-03-14T11:11:31;0.30;;;0.30;;
13234;SDS011;6683;48.506;9.050;2023-03-14T11:14:34;0.80;;;0.30;;
13234;SDS011;6683;48.506;9.050;2023-03-14T11:17:45;0.70;;;0.40;;
13234;SDS011;6683;48.506;9.050;2023-03-14T11:20:57;0.30;;;0.30;;
13234;SDS011;6683;48.506;9.050;2023-03-14T11:24:11;0.20;;;0.20;;
13234;SDS011;6683;48.506;9.050;2023-03-14T11:27:39;1.03;;;0.27;;
13234;SDS011;6683;48.506;9.050;2023-03-14T11:30:46;1.47;;;0.30;;
13234;SDS011;6683;48.506;9.050;2023-03-14T11:33:56;0.67;;;0.30;;
13234;SDS011;6683;48.506;9.050;2023-03-14T11:37:04;0.27;;;0.20;;
13234;SDS011;6683;48.506;9.050;2023-03-14T11:40:16;0.20;;;0.20;;
13234;SDS011;6683;48.506;9.050;2023-03-14T11:43:24;0.30;;;0.23;;
13234;SDS011;6683;48.506;9.050;2023-03-14T11:46:31;0.40;;;0.30;;
13234;SDS011;6683;48.506;9.050;2023-03-14T11:49:38;0.33;;;0.30;;
13234;SDS011;6683;48.506;9.050;2023-03-14T11:52:47;1.30;;;0.30;;
13234;SDS011;6683;48.506;9.050;2023-03-14T11:55:55;0.20;;;0.20;;
13234;SDS011;6683;48.506;9.050;2023-03-14T11:58:58;0.47;;;0.20;;
13234;SDS011;6683;48.506;9.050;2023-03-14T12:02:04;0.20;;;0.20;;
13234;SDS011;6683;48.506;9.050;2023-03-14T12:05:37;0.73;;;0.30;;
13234;SDS011;6683;48.506;9.050;2023-03-14T12:08:47;0.60;;;0.40;;
13234;SDS011;6683;48.506;9.050;2023-03-14T12:11:54;1.13;;;0.40;;
13234;SDS011;6683;48.506;9.050;2023-03-14T12:14:59;0.53;;;0.30;;
13234;SDS011;6683;48.506;9.050;2023-03-14T12:18:11;0.73;;;0.20;;
13234;SDS011;6683;48.506;9.050;2023-03-14T12:21:23;0.33;;;0.20;;
13234;SDS011;6683;48.506;9.050;2023-03-14T12:24:49;0.33;;;0.30;;
13234;SDS011;6683;48.506;9.050;2023-03-14T12:31:41;0.23;;;0.23;;
13234;SDS011;6683;48.506;9.050;2023-03-14T12:34:45;0.57;;;0.20;;
13234;SDS011;6683;48.506;9.050;2023-03-14T12:37:48;0.77;;;0.30;;
13234;SDS011;6683;48.506;9.050;2023-03-14T12:40:57;0.43;;;0.30;;
13234;SDS011;6683;48.506;9.050;2023-03-14T12:47:52;0.20;;;0.20;;
13234;SDS011;6683;48.506;9.050;2023-03-14T12:51:12;0.40;;;0.40;;
13234;SDS011;6683;48.506;9.050;2023-03-14T12:54:21;0.70;;;0.37;;
13234;SDS011;6683;48.506;9.050;2023-03-14T12:57:39;0.30;;;0.30;;
13234;SDS011;6683;48.506;9.050;2023-03-14T13:00:51;0.50;;;0.40;;
13234;SDS011;6683;48.506;9.050;2023-03-14T13:03:57;0.57;;;0.40;;
13234;SDS011;6683;48.506;9.050;2023-03-14T13:07:11;1.67;;;0.60;;
13234;SDS011;6683;48.506;9.050;2023-03-14T13:10:29;0.80;;;0.37;;
13234;SDS011;6683;48.506;9.050;2023-03-14T13:13:44;1.30;;;0.30;;
13234;SDS011;6683;48.506;9.050;2023-03-14T13:16:51;0.50;;;0.20;;
13234;SDS011;6683;48.506;9.050;2023-03-14T13:19:55;0.80;;;0.30;;
13234;SDS011;6683;48.506;9.050;2023-03-14T13:23:02;1.20;;;0.50;;
13234;SDS011;6683;48.506;9.050;2023-03-14T13:26:06;0.77;;;0.33;;
13234;SDS011;6683;48.506;9.050;2023-03-14T13:29:16;2.20;;;0.40;;
13234;SDS011;6683;48.506;9.050;2023-03-14T13:32:26;0.80;;;0.60;;
13234;SDS011;6683;48.506;9.050;2023-03-14T13:35:29;0.87;;;0.57;;
13234;SDS011;6683;48.506;9.050;2023-03-14T13:38:41;0.87;;;0.50;;
13234;SDS011;6683;48.506;9.050;2023-03-14T13:41:44;1.10;;;0.50;;
13234;SDS011;6683;48.506;9.050;2023-03-14T13:44:48;1.23;;;0.57;;
13234;SDS011;6683;48.506;9.050;2023-03-14T13:47:54;1.53;;;0.60;;
13234;SDS011;6683;48.506;9.050;2023-03-14T13:50:58;1.33;;;0.40;;
13234;SDS011;6683;48.506;9.050;2023-03-14T13:54:11;0.80;;;0.50;;
13234;SDS011;6683;48.506;9.050;2023-03-14T13:57:15;1.40;;;0.53;;
13234;SDS011;6683;48.506;9.050;2023-03-14T14:00:19;2.40;;;0.60;;
13234;SDS011;6683;48.506;9.050;2023-03-14T14:03:28;1.00;;;0.50;;
13234;SDS011;6683;48.506;9.050;2023-03-14T14:06:35;2.37;;;0.77;;
13234;SDS011;6683;48.506;9.050;2023-03-14T14:09:39;2.47;;;0.57;;
13234;SDS011;6683;48.506;9.050;2023-03-14T14:12:46;2.30;;;0.50;;
13234;SDS011;6683;48.506;9.050;2023-03-14T14:15:52;2.67;;;0.80;;
13234;SDS011;6683;48.506;9.050;2023-03-14T14:18:56;1.53;;;0.60;;
13234;SDS011;6683;48.506;9.050;2023-03-14T14:22:00;1.13;;;0.60;;
13234;SDS011;6683;48.506;9.050;2023-03-14T14:25:04;1.43;;;0.57;;
13234;SDS011;6683;48.506;9.050;2023-03-14T14:28:17;1.50;;;0.63;;
13234;SDS011;6683;48.506;9.050;2023-03-14T14:31:27;1.17;;;0.90;;
13234;SDS011;6683;48.506;9.050;2023-03-14T14:34:33;6.40;;;1.20;;
13234;SDS011;6683;48.506;9.050;2023-03-14T14:37:49;1.67;;;0.60;;
13234;SDS011;6683;48.506;9.050;2023-03-14T14:40:53;1.07;;;0.43;;
13234;SDS011;6683;48.506;9.050;2023-03-14T14:44:00;1.63;;;0.60;;
13234;SDS011;6683;48.506;9.050;2023-03-14T14:47:05;2.40;;;0.60;;
13234;SDS011;6683;48.506;9.050;2023-03-14T14:50:21;2.03;;;0.60;;
13234;SDS011;6683;48.506;9.050;2023-03-14T14:53:35;1.67;;;0.77;;
13234;SDS011;6683;48.506;9.050;2023-03-14T14:56:40;0.50;;;0.50;;
13234;SDS011;6683;48.506;9.050;2023-03-14T14:59:48;0.60;;;0.40;;
13234;SDS011;6683;48.506;9.050;2023-03-14T15:02:53;0.47;;;0.30;;
13234;SDS011;6683;48.506;9.050;2023-03-14T15:06:02;10.43;;;1.40;;
13234;SDS011;6683;48.506;9.050;2023-03-14T15:09:05;1.30;;;0.50;;
13234;SDS011;6683;48.506;9.050;2023-03-14T15:12:11;0.90;;;0.47;;
13234;SDS011;6683;48.506;9.050;2023-03-14T15:15:14;1.00;;;0.70;;
13234;SDS011;6683;48.506;9.050;2023-03-14T15:18:18;1.57;;;0.40;;
13234;SDS011;6683;48.506;9.050;2023-03-14T15:21:22;2.87;;;0.60;;
13234;SDS011;6683;48.506;9.050;2023-03-14T15:24:26;1.10;;;0.70;;
13234;SDS011;6683;48.506;9.050;2023-03-14T15:27:30;2.20;;;0.50;;
13234;SDS011;6683;48.506;9.050;2023-03-14T15:30:33;1.63;;;0.70;;
13234;SDS011;6683;48.506;9.050;2023-03-14T15:33:35;0.93;;;0.50;;
13234;SDS011;6683;48.506;9.050;2023-03-14T15:36:40;1.27;;;0.50;;
13234;SDS011;6683;48.506;9.050;2023-03-14T15:39:43;1.73;;;0.50;;
13234;SDS011;6683;48.506;9.050;2023-03-14T15:42:45;1.67;;;0.60;;
13234;SDS011;6683;48.506;9.050;2023-03-14T15:45:47;1.20;;;0.50;;
13234;SDS011;6683;48.506;9.050;2023-03-14T15:48:51;2.27;;;0.60;;
13234;SDS011;6683;48.506;9.050;2023-03-14T15:51:55;0.80;;;0.50;;
13234;SDS011;6683;48.506;9.050;2023-03-14T15:54:57;1.00;;;0.57;;
13234;SDS011;6683;48.506;9.050;2023-03-14T15:58:00;2.07;;;0.60;;
13234;SDS011;6683;48.506;9.050;2023-03-14T16:01:02;1.70;;;0.50;;
13234;SDS011;6683;48.506;9.050;2023-03-14T16:04:05;7.30;;;0.90;;
13234;SDS011;6683;48.506;9.050;2023-03-14T16:07:09;2.10;;;1.13;;
13234;SDS011;6683;48.506;9.050;2023-03-14T16:10:12;0.93;;;0.50;;
13234;SDS011;6683;48.506;9.050;2023-03-14T16:13:16;1.77;;;0.50;;
13234;SDS011;6683;48.506;9.050;2023-03-14T16:16:18;2.67;;;0.60;;
13234;SDS011;6683;48.506;9.050;2023-03-14T16:19:21;0.80;;;0.60;;
13234;SDS011;6683;48.506;9.050;2023-03-14T16:22:27;2.30;;;0.67;;
13234;SDS011;6683;48.506;9.050;2023-03-14T16:25:33;2.40;;;0.63;;
13234;SDS011;6683;48.506;9.050;2023-03-14T16:28:35;0.90;;;0.57;;
13234;SDS011;6683;48.506;9.050;2023-03-14T16:31:38;0.90;;;0.60;;
13234;SDS011;6683;48.506;9.050;2023-03-14T16:34:42;2.83;;;0.50;;
13234;SDS011;6683;48.506;9.050;2023-03-14T16:37:46;2.10;;;0.60;;
13234;SDS011;6683;48.506;9.050;2023-03-14T16:40:55;1.93;;;0.50;;
13234;SDS011;6683;48.506;9.050;2023-03-14T16:43:59;1.57;;;0.63;;
13234;SDS011;6683;48.506;9.050;2023-03-14T16:47:02;2.30;;;0.70;;
13234;SDS011;6683;48.506;9.050;2023-03-14T16:50:05;0.70;;;0.43;;
13234;SDS011;6683;48.506;9.050;2023-03-14T16:53:10;2.73;;;0.97;;
13234;SDS011;6683;48.506;9.050;2023-03-14T16:56:13;1.53;;;0.63;;
13234;SDS011;6683;48.506;9.050;2023-03-14T16:59:16;1.23;;;0.60;;
13234;SDS011;6683;48.506;9.050;2023-03-14T17:02:18;1.07;;;0.70;;
13234;SDS011;6683;48.506;9.050;2023-03-14T17:05:21;1.57;;;0.67;;
13234;SDS011;6683;48.506;9.050;2023-03-14T17:08:25;1.33;;;0.80;;
13234;SDS011;6683;48.506;9.050;2023-03-14T17:11:27;1.83;;;0.60;;
13234;SDS011;6683;48.506;9.050;2023-03-14T17:14:30;1.63;;;0.70;;
13234;SDS011;6683;48.506;9.050;2023-03-14T17:17:33;1.00;;;0.50;;
13234;SDS011;6683;48.506;9.050;2023-03-14T17:20:35;1.10;;;0.57;;
13234;SDS011;6683;48.506;9.050;2023-03-14T17:23:41;1.10;;;0.83;;
13234;SDS011;6683;48.506;9.050;2023-03-14T17:26:44;1.73;;;0.80;;
13234;SDS011;6683;48.506;9.050;2023-03-14T17:29:46;1.33;;;1.07;;
13234;SDS011;6683;48.506;9.050;2023-03-14T17:32:50;1.47;;;0.60;;
13234;SDS011;6683;48.506;9.050;2023-03-14T17:35:52;2.00;;;0.80;;
13234;SDS011;6683;48.506;9.050;2023-03-14T17:38:56;3.77;;;1.20;;
13234;SDS011;6683;48.506;9.050;2023-03-14T17:41:59;1.97;;;0.77;;
13234;SDS011;6683;48.506;9.050;2023-03-14T17:45:01;1.03;;;0.70;;
13234;SDS011;6683;48.506;9.050;2023-03-14T17:48:04;1.20;;;0.60;;
13234;SDS011;6683;48.506;9.050;2023-03-14T17:51:07;2.17;;;0.90;;
13234;SDS011;6683;48.506;9.050;2023-03-14T17:54:11;1.93;;;0.80;;
13234;SDS011;6683;48.506;9.050;2023-03-14T17:57:13;2.93;;;1.30;;
13234;SDS011;6683;48.506;9.050;2023-03-14T18:00:16;2.57;;;0.90;;
13234;SDS011;6683;48.506;9.050;2023-03-14T18:03:22;1.50;;;0.97;;
13234;SDS011;6683;48.506;9.050;2023-03-14T18:06:24;1.77;;;1.40;;
13234;SDS011;6683;48.506;9.050;2023-03-14T18:09:30;2.17;;;1.97;;
13234;SDS011;6683;48.506;9.050;2023-03-14T18:12:33;4.33;;;1.60;;
13234;SDS011;6683;48.506;9.050;2023-03-14T18:15:35;2.53;;;1.37;;
13234;SDS011;6683;48.506;9.050;2023-03-14T18:18:38;2.53;;;0.93;;
13234;SDS011;6683;48.506;9.050;2023-03-14T18:21:41;2.57;;;1.10;;
13234;SDS011;6683;48.506;9.050;2023-03-14T18:24:45;1.27;;;0.80;;
13234;SDS011;6683;48.506;9.050;2023-03-14T18:27:48;2.50;;;0.80;;
13234;SDS011;6683;48.506;9.050;2023-03-14T18:30:51;1.10;;;0.80;;
13234;SDS011;6683;48.506;9.050;2023-03-14T18:33:54;1.30;;;1.00;;
13234;SDS011;6683;48.506;9.050;2023-03-14T18:36:56;1.47;;;1.10;;
13234;SDS011;6683;48.506;9.050;2023-03-14T18:40:01;2.03;;;1.10;;
13234;SDS011;6683;48.506;9.050;2023-03-14T18:43:04;2.13;;;1.30;;
13234;SDS011;6683;48.506;9.050;2023-03-14T18:46:06;2.83;;;1.07;;
13234;SDS011;6683;48.506;9.050;2023-03-14T18:49:09;1.20;;;1.10;;
13234;SDS011;6683;48.506;9.050;2023-03-14T18:52:13;3.47;;;1.20;;
13234;SDS011;6683;48.506;9.050;2023-03-14T18:55:17;1.43;;;1.03;;
13234;SDS011;6683;48.506;9.050;2023-03-14T18:58:20;2.27;;;1.20;;
13234;SDS011;6683;48.506;9.050;2023-03-14T19:01:27;2.17;;;1.47;;